sensor_id;sensor_type;location;lat;lon;timestamp;temperature;humidity
20722;DHT22;10522;52.198;9.890;2024-03-29T00:00:26;7.90;99.90
20722;DHT22;10522;52.198;9.890;2024-03-29T00:02:51;8.00;99.90
20722;DHT22;10522;52.198;9.890;2024-03-29T00:05:17;8.00;99.90
20722;DHT22;10522;52.198;9.890;2024-03-29T00:07:42;7.90;99.90
20722;DHT22;10522;52.198;9.890;2024-03-29T00:10:08;8.00;99.90
20722;DHT22;10522;52.198;9.890;2024-03-29T00:12:34;8.00;99.90
20722;DHT22;10522;52.198;9.890;2024-03-29T00:14:59;8.00;99.90
20722;DHT22;10522;52.198;9.890;2024-03-29T00:17:25;8.00;99.90
20722;DHT22;10522;52.198;9.890;2024-03-29T00:19:51;8.00;99.90
20722;DHT22;10522;52.198;9.890;2024-03-29T00:22:16;7.90;99.90
20722;DHT22;10522;52.198;9.890;2024-03-29T00:24:42;7.90;99.90
20722;DHT22;10522;52.198;9.890;2024-03-29T00:27:07;7.90;99.90
20722;DHT22;10522;52.198;9.890;2024-03-29T00:29:34;7.90;99.90
20722;DHT22;10522;52.198;9.890;2024-03-29T00:31:59;7.90;99.90
20722;DHT22;10522;52.198;9.890;2024-03-29T00:34:25;7.90;99.90
20722;DHT22;10522;52.198;9.890;2024-03-29T00:36:51;7.80;99.90
20722;DHT22;10522;52.198;9.890;2024-03-29T00:39:18;7.80;99.90
20722;DHT22;10522;52.198;9.890;2024-03-29T00:41:43;7.90;99.90
20722;DHT22;10522;52.198;9.890;2024-03-29T00:44:09;7.80;99.90
20722;DHT22;10522;52.198;9.890;2024-03-29T00:46:34;7.90;99.90
20722;DHT22;10522;52.198;9.890;2024-03-29T00:49:00;7.80;99.90
20722;DHT22;10522;52.198;9.890;2024-03-29T00:51:26;7.70;99.90
20722;DHT22;10522;52.198;9.890;2024-03-29T00:53:51;7.90;99.90
20722;DHT22;10522;52.198;9.890;2024-03-29T00:56:17;7.70;99.90
20722;DHT22;10522;52.198;9.890;2024-03-29T00:58:43;7.70;99.90
20722;DHT22;10522;52.198;9.890;2024-03-29T01:01:08;7.60;99.90
20722;DHT22;10522;52.198;9.890;2024-03-29T01:03:34;7.70;99.90
20722;DHT22;10522;52.198;9.890;2024-03-29T01:06:00;7.60;99.90
20722;DHT22;10522;52.198;9.890;2024-03-29T01:08:25;7.50;99.90
20722;DHT22;10522;52.198;9.890;2024-03-29T01:10:51;7.60;99.90
20722;DHT22;10522;52.198;9.890;2024-03-29T01:13:16;7.80;99.90
20722;DHT22;10522;52.198;9.890;2024-03-29T01:15:42;7.80;99.90
20722;DHT22;10522;52.198;9.890;2024-03-29T01:18:07;7.70;99.90
20722;DHT22;10522;52.198;9.890;2024-03-29T01:20:33;7.80;99.90
20722;DHT22;10522;52.198;9.890;2024-03-29T01:22:59;7.80;99.90
20722;DHT22;10522;52.198;9.890;2024-03-29T01:25:25;7.80;99.90
20722;DHT22;10522;52.198;9.890;2024-03-29T01:27:50;7.80;99.90
20722;DHT22;10522;52.198;9.890;2024-03-29T01:30:16;7.90;99.90
20722;DHT22;10522;52.198;9.890;2024-03-29T01:32:41;7.80;99.90
20722;DHT22;10522;52.198;9.890;2024-03-29T01:35:07;7.70;99.90
20722;DHT22;10522;52.198;9.890;2024-03-29T01:37:33;7.70;99.90
20722;DHT22;10522;52.198;9.890;2024-03-29T01:39:59;7.70;99.90
20722;DHT22;10522;52.198;9.890;2024-03-29T01:42:25;7.70;99.90
20722;DHT22;10522;52.198;9.890;2024-03-29T01:44:51;7.70;99.90
20722;DHT22;10522;52.198;9.890;2024-03-29T01:47:17;7.60;99.90
20722;DHT22;10522;52.198;9.890;2024-03-29T01:49:44;7.50;99.90
20722;DHT22;10522;52.198;9.890;2024-03-29T01:52:12;7.50;99.90
20722;DHT22;10522;52.198;9.890;2024-03-29T01:54:37;7.40;99.90
20722;DHT22;10522;52.198;9.890;2024-03-29T01:57:04;7.40;99.90
20722;DHT22;10522;52.198;9.890;2024-03-29T01:59:31;7.20;99.90
20722;DHT22;10522;52.198;9.890;2024-03-29T02:01:58;7.20;99.90
20722;DHT22;10522;52.198;9.890;2024-03-29T02:04:25;7.20;99.90
20722;DHT22;10522;52.198;9.890;2024-03-29T02:06:52;7.20;99.90
20722;DHT22;10522;52.198;9.890;2024-03-29T02:09:18;7.20;99.90
20722;DHT22;10522;52.198;9.890;2024-03-29T02:11:43;7.20;99.90
20722;DHT22;10522;52.198;9.890;2024-03-29T02:14:09;7.30;99.90
20722;DHT22;10522;52.198;9.890;2024-03-29T02:16:35;7.20;99.90
20722;DHT22;10522;52.198;9.890;2024-03-29T02:19:00;7.30;99.90
20722;DHT22;10522;52.198;9.890;2024-03-29T02:21:26;7.50;99.90
20722;DHT22;10522;52.198;9.890;2024-03-29T02:24:08;7.40;99.90
20722;DHT22;10522;52.198;9.890;2024-03-29T02:26:34;7.50;99.90
20722;DHT22;10522;52.198;9.890;2024-03-29T02:29:02;7.50;99.90
20722;DHT22;10522;52.198;9.890;2024-03-29T02:31:28;7.50;99.90
20722;DHT22;10522;52.198;9.890;2024-03-29T02:33:53;7.40;99.90
20722;DHT22;10522;52.198;9.890;2024-03-29T02:36:19;7.40;99.90
20722;DHT22;10522;52.198;9.890;2024-03-29T02:38:45;7.40;99.90
20722;DHT22;10522;52.198;9.890;2024-03-29T02:41:10;7.50;99.90
20722;DHT22;10522;52.198;9.890;2024-03-29T02:43:36;7.50;99.90
20722;DHT22;10522;52.198;9.890;2024-03-29T02:46:01;7.50;99.90
20722;DHT22;10522;52.198;9.890;2024-03-29T02:48:27;7.50;99.90
20722;DHT22;10522;52.198;9.890;2024-03-29T02:50:53;7.50;99.90
20722;DHT22;10522;52.198;9.890;2024-03-29T02:53:18;7.50;99.90
20722;DHT22;10522;52.198;9.890;2024-03-29T02:55:44;7.50;99.90
20722;DHT22;10522;52.198;9.890;2024-03-29T02:58:09;7.60;99.90
20722;DHT22;10522;52.198;9.890;2024-03-29T03:00:35;7.50;99.90
20722;DHT22;10522;52.198;9.890;2024-03-29T03:03:00;7.40;99.90
20722;DHT22;10522;52.198;9.890;2024-03-29T03:05:26;7.40;99.90
20722;DHT22;10522;52.198;9.890;2024-03-29T03:07:52;7.30;99.90
20722;DHT22;10522;52.198;9.890;2024-03-29T03:10:36;7.30;99.90
20722;DHT22;10522;52.198;9.890;2024-03-29T03:13:20;7.40;99.90
20722;DHT22;10522;52.198;9.890;2024-03-29T03:15:45;7.20;99.90
20722;DHT22;10522;52.198;9.890;2024-03-29T03:18:11;7.20;99.90
20722;DHT22;10522;52.198;9.890;2024-03-29T03:20:36;7.20;99.90
20722;DHT22;10522;52.198;9.890;2024-03-29T03:23:03;7.20;99.90
20722;DHT22;10522;52.198;9.890;2024-03-29T03:25:29;7.20;99.90
20722;DHT22;10522;52.198;9.890;2024-03-29T03:27:54;7.20;99.90
20722;DHT22;10522;52.198;9.890;2024-03-29T03:30:20;7.30;99.90
20722;DHT22;10522;52.198;9.890;2024-03-29T03:32:48;7.30;99.90
20722;DHT22;10522;52.198;9.890;2024-03-29T03:35:14;7.30;99.90
20722;DHT22;10522;52.198;9.890;2024-03-29T03:37:40;7.40;99.90
20722;DHT22;10522;52.198;9.890;2024-03-29T03:40:06;7.40;99.90
20722;DHT22;10522;52.198;9.890;2024-03-29T03:42:33;7.50;99.90
20722;DHT22;10522;52.198;9.890;2024-03-29T03:44:58;7.50;99.90
20722;DHT22;10522;52.198;9.890;2024-03-29T03:47:24;7.60;99.90
20722;DHT22;10522;52.198;9.890;2024-03-29T03:49:49;7.50;99.90
20722;DHT22;10522;52.198;9.890;2024-03-29T03:52:15;7.50;99.90
20722;DHT22;10522;52.198;9.890;2024-03-29T03:54:41;7.60;99.90
20722;DHT22;10522;52.198;9.890;2024-03-29T03:57:06;7.50;99.90
20722;DHT22;10522;52.198;9.890;2024-03-29T03:59:32;7.60;99.90
20722;DHT22;10522;52.198;9.890;2024-03-29T04:01:57;7.60;99.90
20722;DHT22;10522;52.198;9.890;2024-03-29T04:04:23;7.60;99.90
20722;DHT22;10522;52.198;9.890;2024-03-29T04:06:49;7.50;99.90
20722;DHT22;10522;52.198;9.890;2024-03-29T04:09:15;7.50;99.90
20722;DHT22;10522;52.198;9.890;2024-03-29T04:11:43;7.60;99.90
20722;DHT22;10522;52.198;9.890;2024-03-29T04:14:09;7.70;99.90
20722;DHT22;10522;52.198;9.890;2024-03-29T04:16:35;7.80;99.90
20722;DHT22;10522;52.198;9.890;2024-03-29T04:19:01;7.90;99.90
20722;DHT22;10522;52.198;9.890;2024-03-29T04:21:27;7.90;99.90
20722;DHT22;10522;52.198;9.890;2024-03-29T04:23:52;7.90;99.90
20722;DHT22;10522;52.198;9.890;2024-03-29T04:26:19;7.80;99.90
20722;DHT22;10522;52.198;9.890;2024-03-29T04:28:44;8.10;99.90
20722;DHT22;10522;52.198;9.890;2024-03-29T04:31:10;7.90;99.90
20722;DHT22;10522;52.198;9.890;2024-03-29T04:33:36;8.00;99.90
20722;DHT22;10522;52.198;9.890;2024-03-29T04:36:03;8.00;99.90
20722;DHT22;10522;52.198;9.890;2024-03-29T04:38:30;8.00;99.90
20722;DHT22;10522;52.198;9.890;2024-03-29T04:40:57;8.00;99.90
20722;DHT22;10522;52.198;9.890;2024-03-29T04:43:27;8.00;99.90
20722;DHT22;10522;52.198;9.890;2024-03-29T04:46:10;8.00;99.90
20722;DHT22;10522;52.198;9.890;2024-03-29T04:48:40;8.00;99.90
20722;DHT22;10522;52.198;9.890;2024-03-29T04:51:11;8.10;99.90
20722;DHT22;10522;52.198;9.890;2024-03-29T04:53:37;8.10;99.90
20722;DHT22;10522;52.198;9.890;2024-03-29T04:56:04;8.10;99.90
20722;DHT22;10522;52.198;9.890;2024-03-29T04:58:30;8.10;99.90
20722;DHT22;10522;52.198;9.890;2024-03-29T05:00:56;8.10;99.90
20722;DHT22;10522;52.198;9.890;2024-03-29T05:03:22;8.20;99.90
20722;DHT22;10522;52.198;9.890;2024-03-29T05:05:50;8.30;99.90
20722;DHT22;10522;52.198;9.890;2024-03-29T05:08:16;8.30;99.90
20722;DHT22;10522;52.198;9.890;2024-03-29T05:10:43;8.30;99.90
20722;DHT22;10522;52.198;9.890;2024-03-29T05:13:09;8.30;99.90
20722;DHT22;10522;52.198;9.890;2024-03-29T05:15:34;8.60;99.90
20722;DHT22;10522;52.198;9.890;2024-03-29T05:18:00;8.50;99.90
20722;DHT22;10522;52.198;9.890;2024-03-29T05:20:26;8.70;99.90
20722;DHT22;10522;52.198;9.890;2024-03-29T05:22:51;8.90;99.90
20722;DHT22;10522;52.198;9.890;2024-03-29T05:25:17;8.80;99.90
20722;DHT22;10522;52.198;9.890;2024-03-29T05:27:43;9.00;99.90
20722;DHT22;10522;52.198;9.890;2024-03-29T05:30:09;9.00;99.90
20722;DHT22;10522;52.198;9.890;2024-03-29T05:32:38;9.00;99.90
20722;DHT22;10522;52.198;9.890;2024-03-29T05:35:04;8.90;99.90
20722;DHT22;10522;52.198;9.890;2024-03-29T05:37:30;8.80;99.90
20722;DHT22;10522;52.198;9.890;2024-03-29T05:39:56;8.70;99.90
20722;DHT22;10522;52.198;9.890;2024-03-29T05:42:27;8.60;99.90
20722;DHT22;10522;52.198;9.890;2024-03-29T05:44:56;8.50;99.90
20722;DHT22;10522;52.198;9.890;2024-03-29T05:47:22;8.30;99.90
20722;DHT22;10522;52.198;9.890;2024-03-29T05:49:49;8.20;99.90
20722;DHT22;10522;52.198;9.890;2024-03-29T05:52:15;8.10;99.90
20722;DHT22;10522;52.198;9.890;2024-03-29T05:54:44;8.10;99.90
20722;DHT22;10522;52.198;9.890;2024-03-29T05:57:11;8.00;99.90
20722;DHT22;10522;52.198;9.890;2024-03-29T05:59:37;8.00;99.90
20722;DHT22;10522;52.198;9.890;2024-03-29T06:02:03;7.90;99.90
20722;DHT22;10522;52.198;9.890;2024-03-29T06:04:29;7.80;99.90
20722;DHT22;10522;52.198;9.890;2024-03-29T06:07:01;7.80;99.90
20722;DHT22;10522;52.198;9.890;2024-03-29T06:09:28;7.80;99.90
20722;DHT22;10522;52.198;9.890;2024-03-29T06:11:57;7.70;99.90
20722;DHT22;10522;52.198;9.890;2024-03-29T06:14:23;7.70;99.90
20722;DHT22;10522;52.198;9.890;2024-03-29T06:17:07;7.70;99.90
20722;DHT22;10522;52.198;9.890;2024-03-29T06:19:53;7.60;99.90
20722;DHT22;10522;52.198;9.890;2024-03-29T06:22:23;7.60;99.90
20722;DHT22;10522;52.198;9.890;2024-03-29T06:24:50;7.50;99.90
20722;DHT22;10522;52.198;9.890;2024-03-29T06:27:17;7.50;99.90
20722;DHT22;10522;52.198;9.890;2024-03-29T06:29:44;7.40;99.90
20722;DHT22;10522;52.198;9.890;2024-03-29T06:32:10;7.30;99.90
20722;DHT22;10522;52.198;9.890;2024-03-29T06:34:36;7.30;99.90
20722;DHT22;10522;52.198;9.890;2024-03-29T06:37:02;7.30;99.90
20722;DHT22;10522;52.198;9.890;2024-03-29T06:39:33;7.20;99.90
20722;DHT22;10522;52.198;9.890;2024-03-29T06:41:59;7.20;99.90
20722;DHT22;10522;52.198;9.890;2024-03-29T06:44:25;7.10;99.90
20722;DHT22;10522;52.198;9.890;2024-03-29T06:46:51;7.10;99.90
20722;DHT22;10522;52.198;9.890;2024-03-29T06:49:16;7.10;99.90
20722;DHT22;10522;52.198;9.890;2024-03-29T06:51:43;7.10;99.90
20722;DHT22;10522;52.198;9.890;2024-03-29T06:54:11;7.10;99.90
20722;DHT22;10522;52.198;9.890;2024-03-29T06:56:37;7.00;99.90
20722;DHT22;10522;52.198;9.890;2024-03-29T06:59:03;7.00;99.90
20722;DHT22;10522;52.198;9.890;2024-03-29T07:01:29;7.10;99.90
20722;DHT22;10522;52.198;9.890;2024-03-29T07:03:56;7.10;99.90
20722;DHT22;10522;52.198;9.890;2024-03-29T07:06:21;7.10;99.90
20722;DHT22;10522;52.198;9.890;2024-03-29T07:08:47;7.20;99.90
20722;DHT22;10522;52.198;9.890;2024-03-29T07:11:13;7.20;99.90
20722;DHT22;10522;52.198;9.890;2024-03-29T07:13:39;7.20;99.90
20722;DHT22;10522;52.198;9.890;2024-03-29T07:16:04;7.20;99.90
20722;DHT22;10522;52.198;9.890;2024-03-29T07:18:32;7.20;99.90
20722;DHT22;10522;52.198;9.890;2024-03-29T07:20:58;7.20;99.90
20722;DHT22;10522;52.198;9.890;2024-03-29T07:23:23;7.20;99.90
20722;DHT22;10522;52.198;9.890;2024-03-29T07:26:03;7.20;99.90
20722;DHT22;10522;52.198;9.890;2024-03-29T07:28:29;7.20;99.90
20722;DHT22;10522;52.198;9.890;2024-03-29T07:30:56;7.40;99.90
20722;DHT22;10522;52.198;9.890;2024-03-29T07:33:23;7.30;99.90
20722;DHT22;10522;52.198;9.890;2024-03-29T07:35:52;7.30;99.90
20722;DHT22;10522;52.198;9.890;2024-03-29T07:38:18;7.40;99.90
20722;DHT22;10522;52.198;9.890;2024-03-29T07:40:49;7.50;99.90
20722;DHT22;10522;52.198;9.890;2024-03-29T07:43:15;7.50;99.90
20722;DHT22;10522;52.198;9.890;2024-03-29T07:45:41;7.50;99.90
20722;DHT22;10522;52.198;9.890;2024-03-29T07:48:12;7.60;99.90
20722;DHT22;10522;52.198;9.890;2024-03-29T07:50:44;7.70;99.90
20722;DHT22;10522;52.198;9.890;2024-03-29T07:53:10;7.70;99.90
20722;DHT22;10522;52.198;9.890;2024-03-29T07:55:40;7.80;99.90
20722;DHT22;10522;52.198;9.890;2024-03-29T07:58:09;7.90;99.90
20722;DHT22;10522;52.198;9.890;2024-03-29T08:00:39;8.00;99.90
20722;DHT22;10522;52.198;9.890;2024-03-29T08:03:06;8.10;99.90
20722;DHT22;10522;52.198;9.890;2024-03-29T08:05:32;8.30;99.90
20722;DHT22;10522;52.198;9.890;2024-03-29T08:07:59;8.30;99.90
20722;DHT22;10522;52.198;9.890;2024-03-29T08:10:24;8.60;99.90
20722;DHT22;10522;52.198;9.890;2024-03-29T08:12:50;8.70;99.90
20722;DHT22;10522;52.198;9.890;2024-03-29T08:15:16;8.90;99.90
20722;DHT22;10522;52.198;9.890;2024-03-29T08:17:44;8.90;99.90
20722;DHT22;10522;52.198;9.890;2024-03-29T08:20:10;9.10;99.90
20722;DHT22;10522;52.198;9.890;2024-03-29T08:22:36;9.30;99.90
20722;DHT22;10522;52.198;9.890;2024-03-29T08:25:01;9.50;99.90
20722;DHT22;10522;52.198;9.890;2024-03-29T08:27:27;9.60;99.90
20722;DHT22;10522;52.198;9.890;2024-03-29T08:29:54;9.70;99.90
20722;DHT22;10522;52.198;9.890;2024-03-29T08:32:20;9.70;99.90
20722;DHT22;10522;52.198;9.890;2024-03-29T08:34:46;9.80;99.90
20722;DHT22;10522;52.198;9.890;2024-03-29T08:37:11;9.90;99.90
20722;DHT22;10522;52.198;9.890;2024-03-29T08:39:38;9.90;99.90
20722;DHT22;10522;52.198;9.890;2024-03-29T08:42:04;10.00;99.90
20722;DHT22;10522;52.198;9.890;2024-03-29T08:44:34;10.00;99.90
20722;DHT22;10522;52.198;9.890;2024-03-29T08:47:01;10.10;99.90
20722;DHT22;10522;52.198;9.890;2024-03-29T08:49:30;10.10;99.90
20722;DHT22;10522;52.198;9.890;2024-03-29T08:51:56;10.20;99.90
20722;DHT22;10522;52.198;9.890;2024-03-29T08:54:24;10.10;99.90
20722;DHT22;10522;52.198;9.890;2024-03-29T08:56:50;10.10;99.90
20722;DHT22;10522;52.198;9.890;2024-03-29T08:59:15;10.00;99.90
20722;DHT22;10522;52.198;9.890;2024-03-29T09:01:44;9.90;99.90
20722;DHT22;10522;52.198;9.890;2024-03-29T09:04:10;10.10;99.90
20722;DHT22;10522;52.198;9.890;2024-03-29T09:06:37;10.20;99.90
20722;DHT22;10522;52.198;9.890;2024-03-29T09:09:04;10.30;99.90
20722;DHT22;10522;52.198;9.890;2024-03-29T09:11:30;10.30;99.90
20722;DHT22;10522;52.198;9.890;2024-03-29T09:13:56;10.40;99.90
20722;DHT22;10522;52.198;9.890;2024-03-29T09:16:25;10.50;99.90
20722;DHT22;10522;52.198;9.890;2024-03-29T09:18:54;10.50;99.90
20722;DHT22;10522;52.198;9.890;2024-03-29T09:21:20;10.50;99.90
20722;DHT22;10522;52.198;9.890;2024-03-29T09:23:46;10.70;99.90
20722;DHT22;10522;52.198;9.890;2024-03-29T09:26:11;10.80;99.90
20722;DHT22;10522;52.198;9.890;2024-03-29T09:28:39;10.90;99.90
20722;DHT22;10522;52.198;9.890;2024-03-29T09:31:05;10.90;99.90
20722;DHT22;10522;52.198;9.890;2024-03-29T09:33:31;11.00;99.90
20722;DHT22;10522;52.198;9.890;2024-03-29T09:35:57;11.10;99.90
20722;DHT22;10522;52.198;9.890;2024-03-29T09:38:24;11.10;99.90
20722;DHT22;10522;52.198;9.890;2024-03-29T09:41:14;11.30;99.90
20722;DHT22;10522;52.198;9.890;2024-03-29T09:43:44;11.40;99.90
20722;DHT22;10522;52.198;9.890;2024-03-29T09:46:11;11.50;99.90
20722;DHT22;10522;52.198;9.890;2024-03-29T09:48:41;11.50;99.90
20722;DHT22;10522;52.198;9.890;2024-03-29T09:51:08;11.80;99.90
20722;DHT22;10522;52.198;9.890;2024-03-29T09:53:35;11.90;99.90
20722;DHT22;10522;52.198;9.890;2024-03-29T09:56:07;11.80;99.90
20722;DHT22;10522;52.198;9.890;2024-03-29T09:58:33;11.90;99.90
20722;DHT22;10522;52.198;9.890;2024-03-29T10:01:03;11.80;99.90
20722;DHT22;10522;52.198;9.890;2024-03-29T10:03:29;11.80;99.90
20722;DHT22;10522;52.198;9.890;2024-03-29T10:05:59;11.80;99.90
20722;DHT22;10522;52.198;9.890;2024-03-29T10:08:29;11.90;99.90
20722;DHT22;10522;52.198;9.890;2024-03-29T10:10:58;11.90;99.90
20722;DHT22;10522;52.198;9.890;2024-03-29T10:13:25;12.10;99.90
20722;DHT22;10522;52.198;9.890;2024-03-29T10:15:54;12.20;99.90
20722;DHT22;10522;52.198;9.890;2024-03-29T10:18:30;12.30;99.90
20722;DHT22;10522;52.198;9.890;2024-03-29T10:21:03;12.50;99.90
20722;DHT22;10522;52.198;9.890;2024-03-29T10:23:31;12.60;99.90
20722;DHT22;10522;52.198;9.890;2024-03-29T10:25:57;12.70;99.90
20722;DHT22;10522;52.198;9.890;2024-03-29T10:28:23;12.60;99.90
20722;DHT22;10522;52.198;9.890;2024-03-29T10:30:50;12.50;99.90
20722;DHT22;10522;52.198;9.890;2024-03-29T10:33:16;12.60;99.90
20722;DHT22;10522;52.198;9.890;2024-03-29T10:35:43;12.40;99.90
20722;DHT22;10522;52.198;9.890;2024-03-29T10:38:12;12.60;99.90
20722;DHT22;10522;52.198;9.890;2024-03-29T10:40:41;12.70;99.90
20722;DHT22;10522;52.198;9.890;2024-03-29T10:43:11;12.90;99.90
20722;DHT22;10522;52.198;9.890;2024-03-29T10:45:39;13.00;99.90
20722;DHT22;10522;52.198;9.890;2024-03-29T10:48:08;13.00;99.90
20722;DHT22;10522;52.198;9.890;2024-03-29T10:50:38;13.10;99.90
20722;DHT22;10522;52.198;9.890;2024-03-29T10:53:06;13.30;99.90
20722;DHT22;10522;52.198;9.890;2024-03-29T10:55:36;13.30;99.90
20722;DHT22;10522;52.198;9.890;2024-03-29T10:58:04;13.30;99.90
20722;DHT22;10522;52.198;9.890;2024-03-29T11:00:39;13.30;99.90
20722;DHT22;10522;52.198;9.890;2024-03-29T11:03:16;13.50;99.90
20722;DHT22;10522;52.198;9.890;2024-03-29T11:05:50;13.60;99.90
20722;DHT22;10522;52.198;9.890;2024-03-29T11:08:27;13.50;99.90
20722;DHT22;10522;52.198;9.890;2024-03-29T11:10:58;13.40;99.90
20722;DHT22;10522;52.198;9.890;2024-03-29T11:13:39;13.60;99.90
20722;DHT22;10522;52.198;9.890;2024-03-29T11:16:07;13.70;99.90
20722;DHT22;10522;52.198;9.890;2024-03-29T11:18:33;13.60;99.90
20722;DHT22;10522;52.198;9.890;2024-03-29T11:20:59;13.50;99.90
20722;DHT22;10522;52.198;9.890;2024-03-29T11:23:27;13.60;99.90
20722;DHT22;10522;52.198;9.890;2024-03-29T11:25:54;13.50;99.90
20722;DHT22;10522;52.198;9.890;2024-03-29T11:28:38;13.70;99.90
20722;DHT22;10522;52.198;9.890;2024-03-29T11:31:07;13.90;99.90
20722;DHT22;10522;52.198;9.890;2024-03-29T11:38:48;14.40;99.90
20722;DHT22;10522;52.198;9.890;2024-03-29T11:41:21;14.50;99.90
20722;DHT22;10522;52.198;9.890;2024-03-29T11:43:50;14.80;99.90
20722;DHT22;10522;52.198;9.890;2024-03-29T11:46:17;14.70;99.90
20722;DHT22;10522;52.198;9.890;2024-03-29T11:48:44;15.00;99.90
20722;DHT22;10522;52.198;9.890;2024-03-29T11:51:13;15.00;99.90
20722;DHT22;10522;52.198;9.890;2024-03-29T11:53:43;15.20;99.90
20722;DHT22;10522;52.198;9.890;2024-03-29T11:56:09;15.20;99.90
20722;DHT22;10522;52.198;9.890;2024-03-29T11:58:37;15.20;99.90
20722;DHT22;10522;52.198;9.890;2024-03-29T12:01:04;15.00;99.90
20722;DHT22;10522;52.198;9.890;2024-03-29T12:03:31;14.90;99.90
20722;DHT22;10522;52.198;9.890;2024-03-29T12:05:58;14.70;99.90
20722;DHT22;10522;52.198;9.890;2024-03-29T12:08:32;14.60;99.90
20722;DHT22;10522;52.198;9.890;2024-03-29T12:10:59;14.60;99.90
20722;DHT22;10522;52.198;9.890;2024-03-29T12:13:27;14.60;99.90
20722;DHT22;10522;52.198;9.890;2024-03-29T12:15:53;14.80;99.90
20722;DHT22;10522;52.198;9.890;2024-03-29T12:18:20;14.80;99.90
20722;DHT22;10522;52.198;9.890;2024-03-29T12:20:48;15.40;99.90
20722;DHT22;10522;52.198;9.890;2024-03-29T12:23:19;15.80;99.90
20722;DHT22;10522;52.198;9.890;2024-03-29T12:25:45;15.60;99.90
20722;DHT22;10522;52.198;9.890;2024-03-29T12:28:12;15.30;99.90
20722;DHT22;10522;52.198;9.890;2024-03-29T12:30:41;15.20;99.90
20722;DHT22;10522;52.198;9.890;2024-03-29T12:33:11;15.20;99.90
20722;DHT22;10522;52.198;9.890;2024-03-29T12:35:44;15.30;99.90
20722;DHT22;10522;52.198;9.890;2024-03-29T12:38:12;15.30;99.90
20722;DHT22;10522;52.198;9.890;2024-03-29T12:40:45;15.30;99.90
20722;DHT22;10522;52.198;9.890;2024-03-29T12:43:14;15.40;99.90
20722;DHT22;10522;52.198;9.890;2024-03-29T12:45:41;15.40;99.90
20722;DHT22;10522;52.198;9.890;2024-03-29T12:48:18;15.30;99.90
20722;DHT22;10522;52.198;9.890;2024-03-29T12:50:47;15.50;99.90
20722;DHT22;10522;52.198;9.890;2024-03-29T12:53:14;15.90;99.90
20722;DHT22;10522;52.198;9.890;2024-03-29T12:55:42;16.00;99.90
20722;DHT22;10522;52.198;9.890;2024-03-29T12:58:11;16.10;99.90
20722;DHT22;10522;52.198;9.890;2024-03-29T13:00:38;15.70;99.90
20722;DHT22;10522;52.198;9.890;2024-03-29T13:03:05;15.60;99.90
20722;DHT22;10522;52.198;9.890;2024-03-29T13:05:31;15.50;99.90
20722;DHT22;10522;52.198;9.890;2024-03-29T13:08:04;15.40;99.90
20722;DHT22;10522;52.198;9.890;2024-03-29T13:10:31;15.10;99.90
20722;DHT22;10522;52.198;9.890;2024-03-29T13:12:56;15.30;99.90
20722;DHT22;10522;52.198;9.890;2024-03-29T13:15:23;15.20;99.90
20722;DHT22;10522;52.198;9.890;2024-03-29T13:17:56;15.50;99.90
20722;DHT22;10522;52.198;9.890;2024-03-29T13:20:23;15.50;99.90
20722;DHT22;10522;52.198;9.890;2024-03-29T13:22:50;15.50;99.90
20722;DHT22;10522;52.198;9.890;2024-03-29T13:25:16;15.60;99.90
20722;DHT22;10522;52.198;9.890;2024-03-29T13:27:43;15.30;99.90
20722;DHT22;10522;52.198;9.890;2024-03-29T13:30:11;15.30;99.90
20722;DHT22;10522;52.198;9.890;2024-03-29T13:32:38;15.20;99.90
20722;DHT22;10522;52.198;9.890;2024-03-29T13:35:05;15.50;99.90
20722;DHT22;10522;52.198;9.890;2024-03-29T13:37:34;15.40;99.90
20722;DHT22;10522;52.198;9.890;2024-03-29T13:40:00;15.10;99.90
20722;DHT22;10522;52.198;9.890;2024-03-29T13:42:25;15.00;99.90
20722;DHT22;10522;52.198;9.890;2024-03-29T13:44:52;14.80;99.90
20722;DHT22;10522;52.198;9.890;2024-03-29T13:47:18;14.90;99.90
20722;DHT22;10522;52.198;9.890;2024-03-29T13:49:45;14.90;99.90
20722;DHT22;10522;52.198;9.890;2024-03-29T13:52:12;15.10;99.90
20722;DHT22;10522;52.198;9.890;2024-03-29T13:54:43;15.30;99.90
20722;DHT22;10522;52.198;9.890;2024-03-29T13:57:09;15.50;99.90
20722;DHT22;10522;52.198;9.890;2024-03-29T13:59:35;15.50;99.90
20722;DHT22;10522;52.198;9.890;2024-03-29T14:02:02;15.40;99.90
20722;DHT22;10522;52.198;9.890;2024-03-29T14:04:28;15.50;99.90
20722;DHT22;10522;52.198;9.890;2024-03-29T14:06:56;15.50;99.90
20722;DHT22;10522;52.198;9.890;2024-03-29T14:09:22;15.30;99.90
20722;DHT22;10522;52.198;9.890;2024-03-29T14:11:47;15.20;99.90
20722;DHT22;10522;52.198;9.890;2024-03-29T14:14:13;15.30;99.90
20722;DHT22;10522;52.198;9.890;2024-03-29T14:16:39;15.30;99.90
20722;DHT22;10522;52.198;9.890;2024-03-29T14:19:04;15.40;99.90
20722;DHT22;10522;52.198;9.890;2024-03-29T14:21:32;15.10;99.90
20722;DHT22;10522;52.198;9.890;2024-03-29T14:23:59;15.10;99.90
20722;DHT22;10522;52.198;9.890;2024-03-29T14:26:25;15.20;99.90
20722;DHT22;10522;52.198;9.890;2024-03-29T14:28:51;15.50;99.90
20722;DHT22;10522;52.198;9.890;2024-03-29T14:31:17;15.80;99.90
20722;DHT22;10522;52.198;9.890;2024-03-29T14:33:43;15.80;99.90
20722;DHT22;10522;52.198;9.890;2024-03-29T14:36:10;15.60;99.90
20722;DHT22;10522;52.198;9.890;2024-03-29T14:38:35;15.60;99.90
20722;DHT22;10522;52.198;9.890;2024-03-29T14:41:01;15.90;99.90
20722;DHT22;10522;52.198;9.890;2024-03-29T14:43:27;16.50;99.90
20722;DHT22;10522;52.198;9.890;2024-03-29T14:45:52;16.60;99.90
20722;DHT22;10522;52.198;9.890;2024-03-29T14:48:18;16.60;99.90
20722;DHT22;10522;52.198;9.890;2024-03-29T14:50:44;16.50;99.90
20722;DHT22;10522;52.198;9.890;2024-03-29T14:53:09;16.50;99.90
20722;DHT22;10522;52.198;9.890;2024-03-29T14:55:35;16.40;99.90
20722;DHT22;10522;52.198;9.890;2024-03-29T14:58:05;16.70;99.90
20722;DHT22;10522;52.198;9.890;2024-03-29T15:00:31;17.60;99.90
20722;DHT22;10522;52.198;9.890;2024-03-29T15:02:57;18.90;99.90
20722;DHT22;10522;52.198;9.890;2024-03-29T15:05:22;19.50;99.90
20722;DHT22;10522;52.198;9.890;2024-03-29T15:07:51;19.10;99.90
20722;DHT22;10522;52.198;9.890;2024-03-29T15:10:17;18.40;99.90
20722;DHT22;10522;52.198;9.890;2024-03-29T15:12:45;18.50;99.90
20722;DHT22;10522;52.198;9.890;2024-03-29T15:15:12;19.10;99.90
20722;DHT22;10522;52.198;9.890;2024-03-29T15:17:38;20.00;99.90
20722;DHT22;10522;52.198;9.890;2024-03-29T15:20:05;19.10;99.90
20722;DHT22;10522;52.198;9.890;2024-03-29T15:22:32;18.30;99.90
20722;DHT22;10522;52.198;9.890;2024-03-29T15:24:59;17.70;99.90
20722;DHT22;10522;52.198;9.890;2024-03-29T15:27:25;17.50;99.90
20722;DHT22;10522;52.198;9.890;2024-03-29T15:30:14;17.10;99.90
20722;DHT22;10522;52.198;9.890;2024-03-29T15:32:40;16.90;99.90
20722;DHT22;10522;52.198;9.890;2024-03-29T15:35:09;16.50;99.90
20722;DHT22;10522;52.198;9.890;2024-03-29T15:37:36;16.00;99.90
20722;DHT22;10522;52.198;9.890;2024-03-29T15:40:02;16.10;99.90
20722;DHT22;10522;52.198;9.890;2024-03-29T15:42:28;16.50;99.90
20722;DHT22;10522;52.198;9.890;2024-03-29T15:44:54;16.50;99.90